Time;durP1;ratioP1;P1;durP2;ratioP2;P2;SDS_P1;SDS_P2;PMS_P1;PMS_P2;Temp;Humidity;BMP_temperature;BMP_pressure;BME280_temperature;BME280_humidity;BME280_pressure;Samples;Min_cycle;Max_cycle;Signal;HPM_P1;HPM_P2
2023/05/13 00:00:11;;;;;;;;;;;;;;;;;;4958695;28;19930;-88
2023/05/13 00:02:37;;;;;;;;;;;;;;;;;;4975024;28;20008;-87
2023/05/13 00:05:03;;;;;;;;;;;;;;;;;;4958900;28;20395;-87
2023/05/13 00:07:29;;;;;;;;;;;;;;;;;;4957681;28;19922;-88
2023/05/13 00:09:55;;;;;;;;;;;;;;;;;;4958667;28;20029;-87
2023/05/13 00:12:21;;;;;;;;;;;;;;;;;;4974907;28;20434;-88
2023/05/13 00:14:47;;;;;;;;;;;;;;;;;;4958454;28;19922;-88
2023/05/13 00:17:13;;;;;;;;;;;;;;;;;;4974881;28;20375;-88
2023/05/13 00:19:39;;;;;;;;;;;;;;;;;;4958439;28;19926;-87
2023/05/13 00:22:05;;;;;;;;;;;;;;;;;;4958130;28;20016;-87
2023/05/13 00:24:31;;;;;;;;;;;;;;;;;;4958434;28;19961;-87
2023/05/13 00:26:57;;;;;;;;;;;;;;;;;;4958319;28;19922;-87
2023/05/13 00:29:23;;;;;;;;;;;;;;;;;;4958292;28;19973;-87
2023/05/13 00:31:50;;;;;;;;;;;;;;;;;;4958331;28;19923;-87
2023/05/13 00:34:17;;;;;;;;;;;;;;;;;;4958206;28;19922;-88
2023/05/13 00:36:43;;;;;;;;;;;;;;;;;;4958552;28;19922;-88
2023/05/13 00:39:10;;;;;;;;;;;;;;;;;;4974479;28;19973;-87
2023/05/13 00:41:36;;;;;;;;;;;;;;;;;;4958059;28;19980;-87
2023/05/13 00:44:02;;;;;;;;;;;;;;;;;;4957776;28;20318;-88
2023/05/13 00:46:28;;;;;;;;;;;;;;;;;;4958365;28;19949;-88
2023/05/13 00:48:54;;;;;;;;;;;;;;;;;;4958325;28;20283;-88
2023/05/13 00:51:20;;;;;;;;;;;;;;;;;;4957900;28;20414;-88
2023/05/13 00:53:46;;;;;;;;;;;;;;;;;;4957748;28;19977;-88
2023/05/13 00:56:12;;;;;;;;;;;;;;;;;;4974271;28;19922;-88
2023/05/13 00:58:38;;;;;;;;;;;;;;;;;;4958291;28;19922;-88
2023/05/13 01:01:04;;;;;;;;;;;;;;;;;;4957613;28;19933;-88
2023/05/13 01:03:30;;;;;;;;;;;;;;;;;;4973977;28;20384;-88
2023/05/13 01:05:56;;;;;;;;;;;;;;;;;;4958144;28;19929;-87
2023/05/13 01:08:22;;;;;;;;;;;;;;;;;;4973190;28;19922;-88
2023/05/13 01:10:48;;;;;;;;;;;;;;;;;;4957227;28;19962;-87
2023/05/13 01:13:15;;;;;;;;;;;;;;;;;;4957803;28;19945;-87
2023/05/13 01:15:41;;;;;;;;;;;;;;;;;;4973662;28;20314;-88
2023/05/13 01:18:06;;;;;;;;;;;;;;;;;;4957259;28;20004;-88
2023/05/13 01:20:32;;;;;;;;;;;;;;;;;;4973256;28;19934;-87
2023/05/13 01:22:58;;;;;;;;;;;;;;;;;;4957190;28;19976;-87
2023/05/13 01:25:24;;;;;;;;;;;;;;;;;;4973448;28;19922;-88
2023/05/13 01:27:50;;;;;;;;;;;;;;;;;;4957385;28;19929;-87
2023/05/13 01:30:16;;;;;;;;;;;;;;;;;;4957086;28;20303;-87
2023/05/13 01:32:42;;;;;;;;;;;;;;;;;;4957254;28;19926;-87
2023/05/13 01:35:08;;;;;;;;;;;;;;;;;;4973366;28;19926;-87
2023/05/13 01:37:34;;;;;;;;;;;;;;;;;;4956798;28;20001;-87
2023/05/13 01:40:00;;;;;;;;;;;;;;;;;;4956708;28;19948;-88
2023/05/13 01:42:25;;;;;;;;;;;;;;;;;;4956835;28;19928;-87
2023/05/13 01:44:51;;;;;;;;;;;;;;;;;;4957008;28;19922;-87
2023/05/13 01:47:17;;;;;;;;;;;;;;;;;;4956908;28;19922;-87
2023/05/13 01:49:43;;;;;;;;;;;;;;;;;;4956769;28;19926;-88
2023/05/13 01:52:09;;;;;;;;;;;;;;;;;;4972530;28;19922;-87
2023/05/13 01:54:35;;;;;;;;;;;;;;;;;;4956610;28;19929;-87
2023/05/13 01:57:02;;;;;;;;;;;;;;;;;;4956923;28;19926;-87
2023/05/13 01:59:28;;;;;;;;;;;;;;;;;;4972626;28;20291;-87
2023/05/13 02:01:53;;;;;;;;;;;;;;;;;;4956326;28;19933;-87
2023/05/13 02:04:20;;;;;;;;;;;;;;;;;;4956548;28;19929;-87
2023/05/13 02:06:46;;;;;;;;;;;;;;;;;;4956719;28;20391;-88
2023/05/13 02:09:12;;;;;;;;;;;;;;;;;;4972546;28;19992;-88
2023/05/13 02:11:38;;;;;;;;;;;;;;;;;;4956905;28;20362;-87
2023/05/13 02:14:04;;;;;;;;;;;;;;;;;;4972590;28;19926;-88
2023/05/13 02:16:30;;;;;;;;;;;;;;;;;;4956813;28;19929;-88
2023/05/13 02:18:56;;;;;;;;;;;;;;;;;;4956542;28;19922;-87
2023/05/13 02:21:21;;;;;;;;;;;;;;;;;;4956046;28;19953;-87
2023/05/13 02:23:47;;;;;;;;;;;;;;;;;;4956301;28;19961;-87
2023/05/13 02:26:13;;;;;;;;;;;;;;;;;;4956271;28;19929;-87
2023/05/13 02:28:39;;;;;;;;;;;;;;;;;;4955890;28;19930;-87
2023/05/13 02:31:05;;;;;;;;;;;;;;;;;;4972058;28;20017;-87
2023/05/13 02:33:31;;;;;;;;;;;;;;;;;;4956151;28;19922;-87
2023/05/13 02:35:57;;;;;;;;;;;;;;;;;;4956479;28;20287;-87
2023/05/13 02:38:23;;;;;;;;;;;;;;;;;;4956226;28;19922;-87
2023/05/13 02:40:49;;;;;;;;;;;;;;;;;;4972178;28;19926;-87
2023/05/13 02:43:15;;;;;;;;;;;;;;;;;;4956242;28;19958;-87
2023/05/13 02:45:41;;;;;;;;;;;;;;;;;;4972057;28;19984;-87
2023/05/13 02:48:07;;;;;;;;;;;;;;;;;;4956106;28;19930;-87
2023/05/13 02:50:33;;;;;;;;;;;;;;;;;;4972137;28;19922;-88
2023/05/13 02:52:59;;;;;;;;;;;;;;;;;;4956143;28;20012;-86
2023/05/13 02:55:25;;;;;;;;;;;;;;;;;;4956030;28;19992;-87
2023/05/13 02:57:51;;;;;;;;;;;;;;;;;;4972097;28;19933;-86
2023/05/13 03:00:16;;;;;;;;;;;;;;;;;;4971719;28;19930;-87
2023/05/13 03:02:42;;;;;;;;;;;;;;;;;;4971971;28;20394;-87
2023/05/13 03:05:08;;;;;;;;;;;;;;;;;;4955625;28;19930;-87
2023/05/13 03:07:34;;;;;;;;;;;;;;;;;;4956139;28;20307;-87
2023/05/13 03:10:00;;;;;;;;;;;;;;;;;;4972080;28;19922;-87
2023/05/13 03:12:26;;;;;;;;;;;;;;;;;;4955542;28;19977;-87
2023/05/13 03:14:52;;;;;;;;;;;;;;;;;;4955529;28;20387;-87
2023/05/13 03:17:18;;;;;;;;;;;;;;;;;;4956049;28;19930;-87
2023/05/13 03:19:44;;;;;;;;;;;;;;;;;;4955587;28;19926;-87
2023/05/13 03:22:10;;;;;;;;;;;;;;;;;;4955540;28;19926;-87
2023/05/13 03:24:35;;;;;;;;;;;;;;;;;;4956205;28;19926;-87
2023/05/13 03:27:01;;;;;;;;;;;;;;;;;;4955806;28;19934;-87
2023/05/13 03:29:27;;;;;;;;;;;;;;;;;;4971486;28;19929;-87
2023/05/13 03:31:53;;;;;;;;;;;;;;;;;;4955465;28;19922;-87
2023/05/13 03:34:19;;;;;;;;;;;;;;;;;;4955382;28;20008;-87
2023/05/13 03:36:45;;;;;;;;;;;;;;;;;;4955545;28;20289;-87
2023/05/13 03:39:11;;;;;;;;;;;;;;;;;;4955425;28;19926;-87
2023/05/13 03:41:37;;;;;;;;;;;;;;;;;;4973002;28;19926;-85
2023/05/13 03:44:03;;;;;;;;;;;;;;;;;;4975016;28;19997;-87
2023/05/13 03:46:29;;;;;;;;;;;;;;;;;;4959246;28;19922;-87
2023/05/13 03:48:55;;;;;;;;;;;;;;;;;;4959343;28;19929;-87
2023/05/13 03:51:21;;;;;;;;;;;;;;;;;;4958947;28;19981;-87
2023/05/13 03:53:46;;;;;;;;;;;;;;;;;;4959178;28;20326;-88
2023/05/13 03:56:12;;;;;;;;;;;;;;;;;;4959357;28;19922;-87
2023/05/13 03:58:38;;;;;;;;;;;;;;;;;;4958986;28;19923;-87
2023/05/13 04:01:04;;;;;;;;;;;;;;;;;;4974786;28;20380;-86
2023/05/13 04:03:30;;;;;;;;;;;;;;;;;;4958698;28;19949;-87
2023/05/13 04:05:56;;;;;;;;;;;;;;;;;;4958776;28;20459;-87
2023/05/13 04:08:22;;;;;;;;;;;;;;;;;;4958951;28;19921;-87
2023/05/13 04:10:48;;;;;;;;;;;;;;;;;;4974701;28;19929;-87
2023/05/13 04:13:14;;;;;;;;;;;;;;;;;;4958495;28;19922;-87
2023/05/13 04:15:40;;;;;;;;;;;;;;;;;;4958518;28;19964;-87
2023/05/13 04:18:06;;;;;;;;;;;;;;;;;;4958919;28;20000;-87
2023/05/13 04:20:32;;;;;;;;;;;;;;;;;;4974696;28;19926;-87
2023/05/13 04:22:58;;;;;;;;;;;;;;;;;;4958355;28;19937;-87
2023/05/13 04:25:24;;;;;;;;;;;;;;;;;;4958739;28;19929;-87
2023/05/13 04:27:50;;;;;;;;;;;;;;;;;;4974259;28;19923;-87
2023/05/13 04:30:15;;;;;;;;;;;;;;;;;;4958709;28;20260;-87
2023/05/13 04:32:41;;;;;;;;;;;;;;;;;;4974618;28;19926;-87
2023/05/13 04:35:07;;;;;;;;;;;;;;;;;;4958797;28;19933;-88
2023/05/13 04:37:33;;;;;;;;;;;;;;;;;;4958554;28;19928;-88
2023/05/13 04:39:59;;;;;;;;;;;;;;;;;;4958022;28;19926;-87
2023/05/13 04:42:25;;;;;;;;;;;;;;;;;;4957940;28;20433;-87
2023/05/13 04:44:51;;;;;;;;;;;;;;;;;;4958052;28;19926;-87
2023/05/13 04:47:17;;;;;;;;;;;;;;;;;;4958222;28;19926;-87
2023/05/13 04:49:43;;;;;;;;;;;;;;;;;;4974071;28;19922;-87
2023/05/13 04:52:11;;;;;;;;;;;;;;;;;;4957405;28;20030;-87
2023/05/13 04:54:38;;;;;;;;;;;;;;;;;;4958027;28;20186;-87
2023/05/13 04:57:04;;;;;;;;;;;;;;;;;;4974389;28;20367;-87
2023/05/13 04:59:30;;;;;;;;;;;;;;;;;;4957800;28;19922;-87
2023/05/13 05:01:56;;;;;;;;;;;;;;;;;;4957651;28;19994;-87
2023/05/13 05:04:22;;;;;;;;;;;;;;;;;;4958130;28;20290;-87
2023/05/13 05:06:48;;;;;;;;;;;;;;;;;;4958008;28;19922;-87
2023/05/13 05:09:13;;;;;;;;;;;;;;;;;;4957753;28;19977;-87
2023/05/13 05:11:39;;;;;;;;;;;;;;;;;;4957525;28;19928;-87
2023/05/13 05:14:05;;;;;;;;;;;;;;;;;;4956946;28;20383;-87
2023/05/13 05:16:31;;;;;;;;;;;;;;;;;;4973529;28;19977;-87
2023/05/13 05:18:58;;;;;;;;;;;;;;;;;;4957386;28;19929;-87
2023/05/13 05:21:24;;;;;;;;;;;;;;;;;;4957368;28;19930;-87
2023/05/13 05:23:49;;;;;;;;;;;;;;;;;;4973211;28;19932;-87
2023/05/13 05:26:15;;;;;;;;;;;;;;;;;;4957414;28;20016;-87
2023/05/13 05:28:41;;;;;;;;;;;;;;;;;;4957624;28;20334;-87
2023/05/13 05:31:08;;;;;;;;;;;;;;;;;;4957879;28;19933;-87
2023/05/13 05:33:34;;;;;;;;;;;;;;;;;;4973206;28;20021;-87
2023/05/13 05:36:00;;;;;;;;;;;;;;;;;;4957454;28;20399;-86
2023/05/13 05:38:26;;;;;;;;;;;;;;;;;;4957167;28;20009;-87
2023/05/13 05:40:52;;;;;;;;;;;;;;;;;;4956675;28;19984;-87
2023/05/13 05:43:18;;;;;;;;;;;;;;;;;;4957077;28;19930;-87
2023/05/13 05:45:44;;;;;;;;;;;;;;;;;;4957061;28;20394;-87
2023/05/13 05:48:10;;;;;;;;;;;;;;;;;;4973132;28;20379;-87
2023/05/13 05:50:37;;;;;;;;;;;;;;;;;;4956819;28;19922;-87
2023/05/13 05:53:03;;;;;;;;;;;;;;;;;;4956948;28;19922;-86
2023/05/13 05:55:30;;;;;;;;;;;;;;;;;;4973241;28;20398;-87
2023/05/13 05:57:56;;;;;;;;;;;;;;;;;;4957071;28;19926;-87
2023/05/13 06:00:22;;;;;;;;;;;;;;;;;;4956252;28;20426;-86
2023/05/13 06:02:48;;;;;;;;;;;;;;;;;;4955220;28;19922;-87
2023/05/13 06:05:14;;;;;;;;;;;;;;;;;;4964259;28;19928;-87
2023/05/13 06:07:40;;;;;;;;;;;;;;;;;;4961495;28;20013;-87
2023/05/13 06:10:06;;;;;;;;;;;;;;;;;;4945443;29;19922;-87
2023/05/13 06:12:32;;;;;;;;;;;;;;;;;;4949175;28;19923;-87
2023/05/13 06:14:58;;;;;;;;;;;;;;;;;;4947639;28;19923;-87
2023/05/13 06:17:24;;;;;;;;;;;;;;;;;;4956108;28;19922;-86
2023/05/13 06:19:49;;;;;;;;;;;;;;;;;;4948079;28;20368;-87
2023/05/13 06:22:15;;;;;;;;;;;;;;;;;;4951470;28;19962;-87
2023/05/13 06:24:43;;;;;;;;;;;;;;;;;;4964176;28;19933;-87
2023/05/13 06:27:09;;;;;;;;;;;;;;;;;;4963615;28;19945;-87
2023/05/13 06:29:35;;;;;;;;;;;;;;;;;;4948140;28;19922;-88
2023/05/13 06:32:01;;;;;;;;;;;;;;;;;;4945927;29;19926;-87
2023/05/13 06:34:27;;;;;;;;;;;;;;;;;;4948558;28;19922;-86
2023/05/13 06:36:53;;;;;;;;;;;;;;;;;;4962565;28;19922;-87
2023/05/13 06:39:19;;;;;;;;;;;;;;;;;;4948922;28;19973;-88
2023/05/13 06:41:45;;;;;;;;;;;;;;;;;;4947254;28;19933;-87
2023/05/13 06:44:10;;;;;;;;;;;;;;;;;;4944862;28;19922;-87
2023/05/13 06:46:36;;;;;;;;;;;;;;;;;;4947678;28;19976;-88
2023/05/13 06:49:02;;;;;;;;;;;;;;;;;;4949661;28;20399;-88
2023/05/13 06:51:30;;;;;;;;;;;;;;;;;;4948894;28;19934;-87
2023/05/13 06:53:56;;;;;;;;;;;;;;;;;;4944230;28;20371;-87
2023/05/13 06:56:22;;;;;;;;;;;;;;;;;;4944579;28;20336;-87
2023/05/13 06:58:49;;;;;;;;;;;;;;;;;;4946103;28;19922;-87
2023/05/13 07:01:15;;;;;;;;;;;;;;;;;;4949735;28;19969;-87
2023/05/13 07:03:41;;;;;;;;;;;;;;;;;;4961014;28;19926;-87
2023/05/13 07:06:07;;;;;;;;;;;;;;;;;;4943666;28;19923;-88
2023/05/13 07:08:33;;;;;;;;;;;;;;;;;;4948153;29;20021;-88
2023/05/13 07:10:59;;;;;;;;;;;;;;;;;;4950736;28;20199;-88
2023/05/13 07:13:25;;;;;;;;;;;;;;;;;;4951680;28;19922;-88
2023/05/13 07:15:51;;;;;;;;;;;;;;;;;;4947391;28;19929;-88
2023/05/13 07:18:17;;;;;;;;;;;;;;;;;;4949620;28;19923;-88
2023/05/13 07:20:42;;;;;;;;;;;;;;;;;;4956189;28;19930;-88
2023/05/13 07:23:08;;;;;;;;;;;;;;;;;;4952273;28;19922;-88
2023/05/13 07:25:34;;;;;;;;;;;;;;;;;;4969585;28;19973;-88
2023/05/13 07:28:00;;;;;;;;;;;;;;;;;;4955451;28;20276;-88
2023/05/13 07:30:26;;;;;;;;;;;;;;;;;;4955328;28;19922;-89
2023/05/13 07:32:52;;;;;;;;;;;;;;;;;;4949794;28;19961;-88
2023/05/13 07:35:18;;;;;;;;;;;;;;;;;;4952483;28;19929;-92
2023/05/13 07:37:44;;;;;;;;;;;;;;;;;;4953903;28;19934;-92
2023/05/13 07:40:10;;;;;;;;;;;;;;;;;;4953720;28;19926;-93
2023/05/13 07:42:36;;;;;;;;;;;;;;;;;;4951616;28;19923;-93
2023/05/13 07:45:01;;;;;;;;;;;;;;;;;;4951267;28;19926;-93
2023/05/13 07:47:27;;;;;;;;;;;;;;;;;;4950390;28;19977;-92
2023/05/13 07:49:53;;;;;;;;;;;;;;;;;;4951651;28;20121;-91
2023/05/13 07:52:19;;;;;;;;;;;;;;;;;;4952929;28;19926;-94
2023/05/13 07:54:45;;;;;;;;;;;;;;;;;;4949877;28;19923;-92
2023/05/13 07:57:11;;;;;;;;;;;;;;;;;;4952379;28;20299;-92
2023/05/13 07:59:37;;;;;;;;;;;;;;;;;;4952995;28;19961;-91
2023/05/13 08:02:03;;;;;;;;;;;;;;;;;;4952857;28;20024;-93
2023/05/13 08:04:29;;;;;;;;;;;;;;;;;;4951028;28;19922;-92
2023/05/13 08:06:55;;;;;;;;;;;;;;;;;;4951104;28;20021;-93
2023/05/13 08:09:21;;;;;;;;;;;;;;;;;;4949233;28;19979;-91
2023/05/13 08:11:47;;;;;;;;;;;;;;;;;;4951408;28;19923;-91
2023/05/13 08:14:12;;;;;;;;;;;;;;;;;;4949485;28;20411;-92
2023/05/13 08:16:38;;;;;;;;;;;;;;;;;;4950173;28;19922;-92
2023/05/13 08:19:04;;;;;;;;;;;;;;;;;;4950886;28;19946;-92
2023/05/13 08:21:31;;;;;;;;;;;;;;;;;;4952399;28;19933;-92
2023/05/13 08:23:57;;;;;;;;;;;;;;;;;;4951909;28;19972;-93
2023/05/13 08:26:23;;;;;;;;;;;;;;;;;;4950988;28;20371;-92
2023/05/13 08:28:49;;;;;;;;;;;;;;;;;;4952298;28;19949;-92
2023/05/13 08:31:15;;;;;;;;;;;;;;;;;;4951813;28;19922;-92
2023/05/13 08:33:41;;;;;;;;;;;;;;;;;;4947703;28;20568;-92
2023/05/13 08:36:07;;;;;;;;;;;;;;;;;;4947448;28;19923;-93
2023/05/13 08:38:33;;;;;;;;;;;;;;;;;;4946053;28;19930;-93
2023/05/13 08:40:59;;;;;;;;;;;;;;;;;;4967673;28;19949;-93
2023/05/13 08:43:25;;;;;;;;;;;;;;;;;;4971955;28;19973;-93
2023/05/13 08:45:52;;;;;;;;;;;;;;;;;;4948301;28;20175;-93
2023/05/13 08:48:18;;;;;;;;;;;;;;;;;;4951981;28;19922;-92
2023/05/13 08:50:44;;;;;;;;;;;;;;;;;;4948530;28;19929;-93
2023/05/13 08:53:10;;;;;;;;;;;;;;;;;;4952409;28;19922;-94
2023/05/13 08:55:35;;;;;;;;;;;;;;;;;;4952871;28;19932;-94
2023/05/13 08:58:01;;;;;;;;;;;;;;;;;;4952317;28;19927;-96
2023/05/13 09:00:27;;;;;;;;;;;;;;;;;;4949278;28;19926;-94
2023/05/13 09:02:54;;;;;;;;;;;;;;;;;;4948270;28;20431;-93
2023/05/13 09:05:20;;;;;;;;;;;;;;;;;;4947107;28;19941;-93
2023/05/13 09:07:46;;;;;;;;;;;;;;;;;;4948525;28;20026;-92
2023/05/13 09:10:12;;;;;;;;;;;;;;;;;;4949765;28;19981;-92
2023/05/13 09:12:38;;;;;;;;;;;;;;;;;;4948656;28;19923;-93
2023/05/13 09:15:04;;;;;;;;;;;;;;;;;;4952821;28;19929;-93
2023/05/13 09:17:30;;;;;;;;;;;;;;;;;;4952681;28;19993;-93
2023/05/13 09:19:56;;;;;;;;;;;;;;;;;;4950434;29;19974;-92
2023/05/13 09:22:22;;;;;;;;;;;;;;;;;;4952643;28;19973;-93
2023/05/13 09:24:48;;;;;;;;;;;;;;;;;;4951426;28;19969;-93
2023/05/13 09:27:14;;;;;;;;;;;;;;;;;;4954129;28;19928;-93
2023/05/13 09:29:40;;;;;;;;;;;;;;;;;;4953209;28;20029;-92
2023/05/13 09:32:06;;;;;;;;;;;;;;;;;;4953392;28;20474;-91
2023/05/13 09:34:32;;;;;;;;;;;;;;;;;;4956704;28;20025;-91
2023/05/13 09:36:58;;;;;;;;;;;;;;;;;;4954898;28;20335;-92
2023/05/13 09:39:24;;;;;;;;;;;;;;;;;;4951010;28;19977;-92
2023/05/13 09:41:50;;;;;;;;;;;;;;;;;;4949095;28;19926;-93
2023/05/13 09:44:16;;;;;;;;;;;;;;;;;;4953799;28;20018;-92
2023/05/13 09:46:42;;;;;;;;;;;;;;;;;;4948220;28;20447;-93
2023/05/13 09:49:08;;;;;;;;;;;;;;;;;;4948240;28;19922;-92
2023/05/13 09:51:33;;;;;;;;;;;;;;;;;;4956532;28;19922;-93
2023/05/13 09:54:00;;;;;;;;;;;;;;;;;;4948148;28;20449;-93
2023/05/13 09:56:26;;;;;;;;;;;;;;;;;;4951685;28;20012;-92
2023/05/13 09:58:52;;;;;;;;;;;;;;;;;;4946912;28;19929;-93
2023/05/13 10:01:18;;;;;;;;;;;;;;;;;;4952277;28;19931;-93
2023/05/13 10:03:44;;;;;;;;;;;;;;;;;;4951220;28;19980;-94
2023/05/13 10:06:10;;;;;;;;;;;;;;;;;;4951747;28;19967;-92
2023/05/13 10:08:36;;;;;;;;;;;;;;;;;;4956128;28;19968;-93
2023/05/13 10:11:02;;;;;;;;;;;;;;;;;;4955042;28;20399;-93
2023/05/13 10:13:28;;;;;;;;;;;;;;;;;;4956762;28;20383;-94
2023/05/13 10:15:54;;;;;;;;;;;;;;;;;;4956666;28;20037;-92
2023/05/13 10:18:19;;;;;;;;;;;;;;;;;;4970924;28;19938;-92
2023/05/13 10:20:45;;;;;;;;;;;;;;;;;;4953216;28;19992;-93
2023/05/13 10:23:11;;;;;;;;;;;;;;;;;;4958571;28;19930;-92
2023/05/13 10:25:37;;;;;;;;;;;;;;;;;;4956410;28;19922;-91
2023/05/13 10:28:03;;;;;;;;;;;;;;;;;;4956689;28;19976;-92
2023/05/13 10:30:31;;;;;;;;;;;;;;;;;;4957385;28;19937;-92
2023/05/13 10:32:57;;;;;;;;;;;;;;;;;;4956527;28;19973;-93
2023/05/13 10:35:22;;;;;;;;;;;;;;;;;;4958576;28;19930;-92
2023/05/13 10:37:48;;;;;;;;;;;;;;;;;;4972583;28;20411;-92
2023/05/13 10:40:14;;;;;;;;;;;;;;;;;;4954150;28;20009;-92
2023/05/13 10:42:43;;;;;;;;;;;;;;;;;;4956580;28;19998;-92
2023/05/13 10:45:09;;;;;;;;;;;;;;;;;;4955430;28;19930;-92
2023/05/13 10:47:35;;;;;;;;;;;;;;;;;;4955461;28;19922;-92
2023/05/13 10:50:03;;;;;;;;;;;;;;;;;;4955831;28;19932;-91
2023/05/13 10:52:29;;;;;;;;;;;;;;;;;;4972933;28;20012;-91
2023/05/13 10:54:55;;;;;;;;;;;;;;;;;;4955584;28;20013;-91
2023/05/13 10:57:21;;;;;;;;;;;;;;;;;;4956707;28;19933;-91
2023/05/13 10:59:47;;;;;;;;;;;;;;;;;;4955491;28;20219;-91
2023/05/13 11:02:13;;;;;;;;;;;;;;;;;;4955522;28;19933;-92
2023/05/13 11:04:39;;;;;;;;;;;;;;;;;;4955339;28;20422;-91
2023/05/13 11:07:05;;;;;;;;;;;;;;;;;;4953883;28;19980;-92
2023/05/13 11:09:31;;;;;;;;;;;;;;;;;;4956140;28;20009;-92
2023/05/13 11:11:56;;;;;;;;;;;;;;;;;;4955837;28;19969;-92
2023/05/13 11:14:22;;;;;;;;;;;;;;;;;;4953294;28;19922;-92
2023/05/13 11:16:48;;;;;;;;;;;;;;;;;;4957692;28;19930;-90
2023/05/13 11:19:17;;;;;;;;;;;;;;;;;;4958456;28;19926;-89
2023/05/13 11:21:44;;;;;;;;;;;;;;;;;;4972814;28;19926;-91
2023/05/13 11:24:10;;;;;;;;;;;;;;;;;;4956392;28;19941;-92
2023/05/13 11:26:36;;;;;;;;;;;;;;;;;;4956708;28;19926;-92
2023/05/13 11:29:02;;;;;;;;;;;;;;;;;;4969292;28;19922;-92
2023/05/13 11:31:28;;;;;;;;;;;;;;;;;;4954668;28;19992;-92
2023/05/13 11:33:54;;;;;;;;;;;;;;;;;;4954183;28;19929;-92
2023/05/13 11:36:20;;;;;;;;;;;;;;;;;;4958849;28;19923;-93
2023/05/13 11:38:46;;;;;;;;;;;;;;;;;;4953508;28;19934;-93
2023/05/13 11:41:12;;;;;;;;;;;;;;;;;;4955790;28;19946;-91
2023/05/13 11:43:38;;;;;;;;;;;;;;;;;;4953652;28;20037;-92
2023/05/13 11:46:04;;;;;;;;;;;;;;;;;;4951145;28;19973;-92
2023/05/13 11:48:31;;;;;;;;;;;;;;;;;;4950868;28;19949;-93
2023/05/13 11:50:57;;;;;;;;;;;;;;;;;;4953032;28;19958;-92
2023/05/13 11:53:23;;;;;;;;;;;;;;;;;;4957399;28;19977;-90
2023/05/13 11:55:50;;;;;;;;;;;;;;;;;;4953559;28;20773;-90
2023/05/13 11:58:16;;;;;;;;;;;;;;;;;;4972677;28;19922;-90
2023/05/13 12:00:42;;;;;;;;;;;;;;;;;;4961562;28;19977;-90
2023/05/13 12:03:08;;;;;;;;;;;;;;;;;;4948205;28;19922;-93
2023/05/13 12:05:34;;;;;;;;;;;;;;;;;;4968597;28;19926;-95
2023/05/13 12:08:00;;;;;;;;;;;;;;;;;;4954626;28;19933;-91
2023/05/13 12:10:27;;;;;;;;;;;;;;;;;;4959027;28;19929;-93
2023/05/13 12:12:52;;;;;;;;;;;;;;;;;;4958934;28;19922;-93
2023/05/13 12:15:18;;;;;;;;;;;;;;;;;;4974774;28;19934;-95
2023/05/13 12:17:44;;;;;;;;;;;;;;;;;;4956302;28;19925;-92
2023/05/13 12:20:10;;;;;;;;;;;;;;;;;;4959276;28;20036;-94
2023/05/13 12:22:36;;;;;;;;;;;;;;;;;;4957025;28;19922;-93
2023/05/13 12:25:04;;;;;;;;;;;;;;;;;;4958485;28;19942;-94
2023/05/13 12:27:30;;;;;;;;;;;;;;;;;;4958727;28;19933;-92
2023/05/13 12:29:56;;;;;;;;;;;;;;;;;;4958973;28;19923;-91
2023/05/13 12:32:22;;;;;;;;;;;;;;;;;;4959101;28;19926;-93
2023/05/13 12:34:48;;;;;;;;;;;;;;;;;;4958637;28;19929;-92
2023/05/13 12:37:14;;;;;;;;;;;;;;;;;;4958670;28;20276;-93
2023/05/13 12:39:40;;;;;;;;;;;;;;;;;;4958689;28;19923;-92
2023/05/13 12:42:06;;;;;;;;;;;;;;;;;;4955679;28;20348;-92
2023/05/13 12:44:32;;;;;;;;;;;;;;;;;;4955571;28;19968;-90
2023/05/13 12:47:00;;;;;;;;;;;;;;;;;;4973517;28;20054;-92
2023/05/13 12:49:25;;;;;;;;;;;;;;;;;;4953627;28;20283;-92
2023/05/13 12:51:51;;;;;;;;;;;;;;;;;;4967883;28;19930;-90
2023/05/13 12:54:17;;;;;;;;;;;;;;;;;;4945122;28;19929;-92
2023/05/13 12:56:43;;;;;;;;;;;;;;;;;;4949482;29;20399;-91
2023/05/13 12:59:09;;;;;;;;;;;;;;;;;;4949674;28;20230;-91
2023/05/13 13:01:35;;;;;;;;;;;;;;;;;;4949761;28;19933;-91
2023/05/13 13:04:01;;;;;;;;;;;;;;;;;;4948950;28;20367;-91
2023/05/13 13:06:27;;;;;;;;;;;;;;;;;;4949555;28;19929;-91
2023/05/13 13:08:53;;;;;;;;;;;;;;;;;;4957028;28;19940;-92
2023/05/13 13:11:20;;;;;;;;;;;;;;;;;;4957964;28;20013;-91
2023/05/13 13:13:46;;;;;;;;;;;;;;;;;;4957977;28;20017;-91
2023/05/13 13:16:12;;;;;;;;;;;;;;;;;;4958201;28;20355;-92
2023/05/13 13:18:38;;;;;;;;;;;;;;;;;;4957973;28;19922;-91
2023/05/13 13:21:05;;;;;;;;;;;;;;;;;;4955080;28;19926;-92
2023/05/13 13:23:31;;;;;;;;;;;;;;;;;;4956330;28;19929;-92
2023/05/13 13:25:58;;;;;;;;;;;;;;;;;;4956279;28;19931;-92
2023/05/13 13:28:24;;;;;;;;;;;;;;;;;;4958054;28;19922;-91
2023/05/13 13:30:49;;;;;;;;;;;;;;;;;;4957613;28;19922;-92
2023/05/13 13:33:24;;;;;;;;;;;;;;;;;;4957786;28;20446;-91
2023/05/13 13:35:53;;;;;;;;;;;;;;;;;;4957855;28;20224;-92
2023/05/13 13:38:19;;;;;;;;;;;;;;;;;;4950825;28;20379;-93
2023/05/13 13:40:45;;;;;;;;;;;;;;;;;;4952656;28;19978;-93
2023/05/13 13:43:11;;;;;;;;;;;;;;;;;;4962836;28;19973;-93
2023/05/13 13:45:37;;;;;;;;;;;;;;;;;;4946741;28;19929;-91
2023/05/13 13:48:03;;;;;;;;;;;;;;;;;;4953801;28;19977;-92
2023/05/13 13:50:29;;;;;;;;;;;;;;;;;;4949819;28;19922;-92
2023/05/13 13:52:55;;;;;;;;;;;;;;;;;;4952253;28;19988;-92
2023/05/13 13:55:21;;;;;;;;;;;;;;;;;;4961468;28;19949;-92
2023/05/13 13:57:47;;;;;;;;;;;;;;;;;;4949317;28;19923;-92
2023/05/13 14:00:13;;;;;;;;;;;;;;;;;;4955332;28;19930;-95
2023/05/13 14:02:39;;;;;;;;;;;;;;;;;;4954455;28;19999;-96
2023/05/13 14:05:05;;;;;;;;;;;;;;;;;;4968839;28;19922;-94
2023/05/13 14:07:31;;;;;;;;;;;;;;;;;;4964025;28;19922;-94
2023/05/13 14:09:57;;;;;;;;;;;;;;;;;;4954367;28;19988;-94
2023/05/13 14:12:23;;;;;;;;;;;;;;;;;;4947025;28;19926;-94
2023/05/13 14:14:49;;;;;;;;;;;;;;;;;;4947064;28;19929;-93
2023/05/13 14:17:14;;;;;;;;;;;;;;;;;;4949106;28;19980;-95
2023/05/13 14:19:41;;;;;;;;;;;;;;;;;;4951354;28;20278;-96
2023/05/13 14:22:07;;;;;;;;;;;;;;;;;;4953050;28;20439;-93
2023/05/13 14:24:33;;;;;;;;;;;;;;;;;;4960520;28;20062;-93
2023/05/13 14:26:58;;;;;;;;;;;;;;;;;;4949209;28;19922;-93
2023/05/13 14:29:25;;;;;;;;;;;;;;;;;;4947451;28;19929;-93
2023/05/13 14:31:50;;;;;;;;;;;;;;;;;;4952686;28;20455;-95
2023/05/13 14:34:16;;;;;;;;;;;;;;;;;;4952965;28;19986;-96
2023/05/13 14:36:42;;;;;;;;;;;;;;;;;;4948633;28;20012;-95
2023/05/13 14:39:09;;;;;;;;;;;;;;;;;;4946226;29;19930;-95
2023/05/13 14:41:35;;;;;;;;;;;;;;;;;;4949849;28;19933;-94
2023/05/13 14:44:01;;;;;;;;;;;;;;;;;;4952988;28;20004;-95
2023/05/13 14:46:27;;;;;;;;;;;;;;;;;;4952564;28;19929;-94
2023/05/13 14:48:53;;;;;;;;;;;;;;;;;;4949493;28;19950;-92
2023/05/13 14:51:19;;;;;;;;;;;;;;;;;;4949081;28;19930;-94
2023/05/13 14:53:44;;;;;;;;;;;;;;;;;;4952228;28;19965;-91
2023/05/13 14:56:10;;;;;;;;;;;;;;;;;;4967669;28;19964;-90
2023/05/13 14:58:36;;;;;;;;;;;;;;;;;;4971601;28;19944;-93
2023/05/13 15:01:02;;;;;;;;;;;;;;;;;;4945449;28;20399;-93
2023/05/13 15:03:28;;;;;;;;;;;;;;;;;;4966546;28;19981;-94
2023/05/13 15:05:54;;;;;;;;;;;;;;;;;;4951382;28;19922;-94
2023/05/13 15:08:21;;;;;;;;;;;;;;;;;;4951427;28;19922;-95
2023/05/13 15:10:47;;;;;;;;;;;;;;;;;;4969101;28;19962;-93
2023/05/13 15:13:12;;;;;;;;;;;;;;;;;;4949054;28;20064;-93
2023/05/13 15:15:38;;;;;;;;;;;;;;;;;;4953184;28;19945;-93
2023/05/13 15:18:04;;;;;;;;;;;;;;;;;;4951862;28;19922;-92
2023/05/13 15:20:30;;;;;;;;;;;;;;;;;;4952904;28;20400;-92
2023/05/13 15:22:56;;;;;;;;;;;;;;;;;;4955313;28;19924;-94
2023/05/13 15:25:22;;;;;;;;;;;;;;;;;;4956782;28;20349;-96
2023/05/13 15:27:50;;;;;;;;;;;;;;;;;;4956175;28;19923;-95
2023/05/13 15:30:16;;;;;;;;;;;;;;;;;;4957251;28;19926;-94
2023/05/13 15:32:42;;;;;;;;;;;;;;;;;;4961585;28;20010;-94
2023/05/13 15:35:08;;;;;;;;;;;;;;;;;;4956052;28;20296;-93
2023/05/13 15:37:33;;;;;;;;;;;;;;;;;;4955845;28;19965;-94
2023/05/13 15:39:59;;;;;;;;;;;;;;;;;;4959015;28;19922;-94
2023/05/13 15:42:26;;;;;;;;;;;;;;;;;;4952756;28;20347;-95
2023/05/13 15:44:52;;;;;;;;;;;;;;;;;;4975666;28;20013;-95
2023/05/13 15:47:18;;;;;;;;;;;;;;;;;;4959690;28;20008;-95
2023/05/13 15:49:44;;;;;;;;;;;;;;;;;;4959372;28;19929;-95
2023/05/13 15:52:10;;;;;;;;;;;;;;;;;;4957781;28;19966;-94
2023/05/13 15:54:35;;;;;;;;;;;;;;;;;;4959235;28;19929;-95
2023/05/13 15:57:01;;;;;;;;;;;;;;;;;;4959940;28;19928;-93
2023/05/13 15:59:27;;;;;;;;;;;;;;;;;;4960886;28;20415;-96
2023/05/13 16:01:53;;;;;;;;;;;;;;;;;;4963226;28;19926;-96
2023/05/13 16:04:19;;;;;;;;;;;;;;;;;;4962613;28;19922;-94
2023/05/13 16:06:45;;;;;;;;;;;;;;;;;;4962260;28;19941;-96
2023/05/13 16:09:11;;;;;;;;;;;;;;;;;;4958661;28;19965;-92
2023/05/13 16:11:37;;;;;;;;;;;;;;;;;;4958642;28;19932;-96
2023/05/13 16:14:03;;;;;;;;;;;;;;;;;;4960530;28;20013;-94
2023/05/13 16:16:29;;;;;;;;;;;;;;;;;;4958984;28;19934;-94
2023/05/13 16:18:55;;;;;;;;;;;;;;;;;;4958770;28;19930;-94
2023/05/13 16:21:21;;;;;;;;;;;;;;;;;;4960809;28;19984;-96
2023/05/13 16:23:49;;;;;;;;;;;;;;;;;;4958632;28;19926;-94
2023/05/13 16:26:15;;;;;;;;;;;;;;;;;;4958546;28;19922;-95
2023/05/13 16:28:41;;;;;;;;;;;;;;;;;;4958514;28;19926;-94
2023/05/13 16:31:07;;;;;;;;;;;;;;;;;;4956689;28;19937;-94
2023/05/13 16:33:35;;;;;;;;;;;;;;;;;;4957922;28;19922;-94
2023/05/13 16:36:00;;;;;;;;;;;;;;;;;;4957069;28;19929;-93